createdAt,value
2018-07-30T00:00:16.393Z,51.15
2018-07-30T00:02:45.221Z,51.22
2018-07-30T00:05:13.366Z,51.08
2018-07-30T00:07:41.749Z,51.14
2018-07-30T00:10:09.397Z,51.72
2018-07-30T00:12:37.503Z,50.80
2018-07-30T00:15:05.327Z,50.86
2018-07-30T00:17:32.954Z,51.59
2018-07-30T00:20:00.982Z,51.77
2018-07-30T00:22:28.732Z,51.34
2018-07-30T00:24:56.410Z,51.26
2018-07-30T00:27:24.137Z,51.28
2018-07-30T00:29:52.113Z,51.60
2018-07-30T00:32:20.076Z,51.00
2018-07-30T00:34:47.741Z,51.23
2018-07-30T00:37:15.458Z,51.34
2018-07-30T00:39:43.423Z,51.16
2018-07-30T00:42:11.492Z,51.98
2018-07-30T00:44:39.496Z,50.91
2018-07-30T00:47:07.167Z,51.67
2018-07-30T00:49:35.478Z,51.60
2018-07-30T00:52:03.461Z,51.73
2018-07-30T00:54:31.069Z,51.63
2018-07-30T00:56:59.585Z,50.78
2018-07-30T00:59:27.238Z,51.09
2018-07-30T01:01:55.256Z,51.70
2018-07-30T01:04:23.198Z,51.15
2018-07-30T01:06:50.870Z,51.75
2018-07-30T01:09:18.870Z,51.19
2018-07-30T01:11:46.519Z,51.38
2018-07-30T01:14:15.278Z,51.04
2018-07-30T01:16:44.144Z,51.57
2018-07-30T01:19:11.865Z,51.38
2018-07-30T01:21:39.610Z,51.69
2018-07-30T01:24:07.587Z,51.15
2018-07-30T01:26:35.588Z,51.59
2018-07-30T01:29:03.450Z,50.96
2018-07-30T01:31:31.095Z,51.44
2018-07-30T01:33:58.764Z,50.70
2018-07-30T01:36:26.385Z,51.63
2018-07-30T01:38:54.035Z,51.74
2018-07-30T01:41:22.333Z,51.72
2018-07-30T01:43:50.453Z,51.69
2018-07-30T01:46:18.437Z,51.14
2018-07-30T01:48:46.648Z,51.15
2018-07-30T01:51:14.322Z,51.71
2018-07-30T01:53:41.921Z,51.84
2018-07-30T01:56:09.884Z,51.72
2018-07-30T01:58:37.554Z,51.79
2018-07-30T02:01:05.596Z,51.20
2018-07-30T02:03:33.298Z,51.27
2018-07-30T02:06:00.986Z,50.91
2018-07-30T02:08:28.662Z,51.72
2018-07-30T02:10:56.562Z,51.80
2018-07-30T02:13:24.248Z,51.12
2018-07-30T02:15:52.101Z,51.09
2018-07-30T02:18:19.701Z,50.96
2018-07-30T02:20:47.606Z,50.80
2018-07-30T02:23:15.544Z,50.96
2018-07-30T02:25:43.281Z,51.70
2018-07-30T02:28:10.961Z,50.93
2018-07-30T02:30:38.616Z,51.30
2018-07-30T02:33:06.682Z,51.00
2018-07-30T02:35:34.653Z,51.71
2018-07-30T02:38:02.720Z,51.60
2018-07-30T02:40:30.371Z,51.74
2018-07-30T02:42:58.280Z,51.72
2018-07-30T02:45:26.308Z,51.56
2018-07-30T02:47:54.469Z,51.61
2018-07-30T02:50:22.130Z,51.01
2018-07-30T02:52:49.749Z,51.52
2018-07-30T02:55:17.724Z,51.38
2018-07-30T02:57:45.830Z,51.17
2018-07-30T03:00:13.866Z,51.54
2018-07-30T03:02:41.673Z,51.63
2018-07-30T03:05:09.725Z,50.82
2018-07-30T03:07:37.340Z,51.34
2018-07-30T03:10:05.268Z,51.13
2018-07-30T03:12:32.978Z,51.27
2018-07-30T03:15:00.602Z,51.26
2018-07-30T03:17:28.482Z,50.93
2018-07-30T03:19:56.124Z,51.64
2018-07-30T03:22:24.092Z,51.24
2018-07-30T03:24:52.337Z,51.17
2018-07-30T03:27:20.537Z,51.31
2018-07-30T03:29:48.875Z,50.62
2018-07-30T03:32:16.537Z,51.54
2018-07-30T03:34:44.455Z,51.24
2018-07-30T03:37:12.108Z,51.46
2018-07-30T03:39:39.713Z,50.74
2018-07-30T03:42:07.412Z,50.53
2018-07-30T03:44:35.030Z,50.67
2018-07-30T03:47:02.780Z,51.57
2018-07-30T03:49:30.442Z,51.02
2018-07-30T03:51:58.118Z,50.73
2018-07-30T03:54:26.157Z,50.93
2018-07-30T03:56:54.146Z,51.50
2018-07-30T03:59:21.792Z,51.15
2018-07-30T04:01:49.865Z,50.60
2018-07-30T04:04:17.873Z,50.68
2018-07-30T04:06:45.860Z,51.21
2018-07-30T04:09:14.407Z,50.50
2018-07-30T04:11:42.249Z,50.97
2018-07-30T04:14:09.852Z,50.61
2018-07-30T04:16:46.604Z,50.71
2018-07-30T04:19:14.304Z,51.02
2018-07-30T04:21:41.940Z,50.68
2018-07-30T04:24:09.577Z,50.56
2018-07-30T04:26:37.631Z,50.96
2018-07-30T04:29:05.416Z,51.45
2018-07-30T04:31:33.086Z,50.91
2018-07-30T04:34:00.709Z,50.74
2018-07-30T04:36:29.018Z,51.25
2018-07-30T04:38:56.872Z,50.62
2018-07-30T04:41:24.550Z,51.49
2018-07-30T04:43:52.311Z,51.33
2018-07-30T04:46:19.915Z,50.44
2018-07-30T04:48:47.578Z,50.90
2018-07-30T04:51:15.673Z,51.45
2018-07-30T04:53:43.366Z,50.73
2018-07-30T04:56:11.038Z,51.32
2018-07-30T04:58:38.700Z,50.81
2018-07-30T05:01:06.365Z,51.36
2018-07-30T05:03:34.349Z,50.80
2018-07-30T05:06:02.349Z,50.32
2018-07-30T05:08:29.974Z,51.24
2018-07-30T05:10:58.121Z,50.50
2018-07-30T05:13:26.123Z,50.32
2018-07-30T05:15:53.790Z,50.97
2018-07-30T05:18:21.421Z,50.19
2018-07-30T05:20:49.063Z,50.53
2018-07-30T05:23:17.233Z,50.45
2018-07-30T05:25:45.120Z,50.40
2018-07-30T05:28:13.678Z,50.38
2018-07-30T05:30:41.604Z,50.90
2018-07-30T05:33:09.243Z,50.70
2018-07-30T05:35:37.345Z,50.72
2018-07-30T05:38:05.030Z,50.03
2018-07-30T05:40:32.905Z,50.78
2018-07-30T05:43:01.527Z,50.71
2018-07-30T05:45:29.720Z,49.88
2018-07-30T05:47:57.370Z,50.06
2018-07-30T05:50:25.358Z,50.40
2018-07-30T05:52:53.274Z,50.37
2018-07-30T05:55:21.205Z,50.44
2018-07-30T05:57:48.837Z,50.06
2018-07-30T06:00:16.594Z,50.47
2018-07-30T06:02:44.252Z,50.39
2018-07-30T06:05:12.331Z,49.82
2018-07-30T06:07:39.942Z,50.50
2018-07-30T06:10:08.082Z,50.43
2018-07-30T06:12:36.057Z,49.45
2018-07-30T06:15:04.427Z,49.26
2018-07-30T06:17:32.019Z,49.48
2018-07-30T06:20:00.012Z,49.72
2018-07-30T06:22:28.220Z,49.00
2018-07-30T06:24:56.189Z,49.56
2018-07-30T06:27:23.901Z,49.57
2018-07-30T06:29:51.889Z,48.94
2018-07-30T06:32:19.569Z,49.67
2018-07-30T06:34:47.189Z,49.69
2018-07-30T06:37:16.049Z,48.65
2018-07-30T06:39:43.963Z,49.48
2018-07-30T06:42:11.599Z,48.72
2018-07-30T06:44:39.249Z,49.39
2018-07-30T06:47:07.203Z,48.70
2018-07-30T06:49:35.216Z,48.77
2018-07-30T06:52:02.863Z,48.76
2018-07-30T06:54:31.104Z,48.54
2018-07-30T06:56:59.078Z,49.38
2018-07-30T06:59:26.993Z,48.71
2018-07-30T07:01:55.547Z,49.12
2018-07-30T07:04:23.537Z,48.68
2018-07-30T07:06:51.571Z,48.61
2018-07-30T07:09:19.277Z,48.57
2018-07-30T07:11:46.972Z,48.64
2018-07-30T07:14:15.170Z,48.54
2018-07-30T07:16:43.230Z,49.29
2018-07-30T07:19:11.096Z,48.88
2018-07-30T07:21:38.805Z,48.09
2018-07-30T07:24:06.454Z,48.89
2018-07-30T07:26:34.552Z,47.94
2018-07-30T07:29:02.760Z,48.72
2018-07-30T07:31:31.065Z,48.60
2018-07-30T07:33:58.984Z,47.90
2018-07-30T07:36:26.664Z,47.49
2018-07-30T07:38:54.334Z,47.06
2018-07-30T07:41:22.225Z,47.66
2018-07-30T07:43:50.505Z,48.35
2018-07-30T07:46:18.490Z,47.66
2018-07-30T07:48:46.435Z,48.32
2018-07-30T07:51:14.198Z,48.19
2018-07-30T07:53:41.858Z,48.40
2018-07-30T07:56:09.550Z,47.96
2018-07-30T07:58:37.237Z,47.55
2018-07-30T08:01:05.155Z,47.81
2018-07-30T08:03:33.119Z,47.90
2018-07-30T08:06:01.101Z,47.94
2018-07-30T08:08:29.014Z,48.45
2018-07-30T08:10:57.078Z,47.84
2018-07-30T08:13:24.697Z,48.41
2018-07-30T08:15:52.463Z,48.74
2018-07-30T08:18:20.777Z,47.55
2018-07-30T08:20:49.441Z,47.89
2018-07-30T08:23:17.646Z,47.48
2018-07-30T08:25:45.268Z,47.33
2018-07-30T08:28:13.520Z,47.32
2018-07-30T08:30:41.160Z,47.72
2018-07-30T08:33:09.200Z,47.99
2018-07-30T08:35:37.148Z,47.35
2018-07-30T08:38:05.224Z,47.26
2018-07-30T08:40:32.846Z,47.62
2018-07-30T08:43:01.064Z,47.22
2018-07-30T08:45:28.790Z,47.47
2018-07-30T08:47:56.473Z,47.67
2018-07-30T08:50:24.144Z,47.71
2018-07-30T08:52:52.200Z,47.11
2018-07-30T08:55:20.210Z,47.43
2018-07-30T08:57:47.862Z,47.00
2018-07-30T09:00:15.912Z,47.74
2018-07-30T09:02:43.547Z,47.09
2018-07-30T09:05:11.268Z,48.12
2018-07-30T09:07:39.332Z,47.54
2018-07-30T09:10:08.127Z,46.97
2018-07-30T09:12:36.440Z,47.64
2018-07-30T09:15:04.554Z,47.62
2018-07-30T09:17:32.534Z,47.45
2018-07-30T09:20:00.209Z,46.71
2018-07-30T09:22:27.861Z,47.54
2018-07-30T09:24:55.865Z,47.45
2018-07-30T09:27:23.511Z,47.52
2018-07-30T09:29:51.505Z,47.23
2018-07-30T09:32:19.429Z,46.81
2018-07-30T09:34:47.066Z,47.09
2018-07-30T09:37:14.742Z,47.13
2018-07-30T09:39:42.760Z,46.87
2018-07-30T09:42:10.377Z,46.73
2018-07-30T09:44:38.079Z,46.15
2018-07-30T09:47:06.420Z,47.20
2018-07-30T09:49:34.577Z,46.62
2018-07-30T09:52:02.261Z,46.44
2018-07-30T09:54:30.635Z,46.46
2018-07-30T09:56:58.556Z,46.54
2018-07-30T09:59:26.464Z,46.71
2018-07-30T10:01:54.140Z,46.69
2018-07-30T10:04:21.825Z,46.47
2018-07-30T10:06:49.472Z,46.61
2018-07-30T10:09:17.337Z,46.68
2018-07-30T10:11:45.044Z,46.41
2018-07-30T10:14:13.029Z,46.49
2018-07-30T10:16:41.084Z,46.04
2018-07-30T10:19:09.135Z,46.23
2018-07-30T10:21:36.809Z,46.41
2018-07-30T10:24:04.525Z,45.62
2018-07-30T10:26:32.582Z,46.47
2018-07-30T10:29:00.238Z,46.42
2018-07-30T10:31:28.363Z,46.54
2018-07-30T10:33:56.258Z,45.81
2018-07-30T10:36:23.899Z,46.01
2018-07-30T10:38:51.900Z,45.72
2018-07-30T10:41:19.543Z,45.67
2018-07-30T10:43:47.435Z,45.93
2018-07-30T10:46:15.171Z,45.83
2018-07-30T10:48:42.823Z,46.17
2018-07-30T10:51:10.496Z,46.39
2018-07-30T10:53:38.914Z,45.89
2018-07-30T10:56:07.097Z,45.51
2018-07-30T10:58:35.082Z,45.55
2018-07-30T11:01:03.079Z,45.67
2018-07-30T11:03:30.745Z,46.12
2018-07-30T11:05:58.657Z,45.19
2018-07-30T11:08:26.554Z,45.91
2018-07-30T11:10:54.218Z,45.68
2018-07-30T11:13:22.130Z,45.19
2018-07-30T11:15:50.097Z,45.58
2018-07-30T11:18:17.995Z,45.57
2018-07-30T11:20:45.938Z,45.10
2018-07-30T11:23:14.189Z,45.62
2018-07-30T11:25:42.120Z,44.81
2018-07-30T11:28:10.029Z,45.43
2018-07-30T11:30:37.679Z,45.50
2018-07-30T11:33:06.293Z,45.49
2018-07-30T11:35:34.134Z,44.82
2018-07-30T11:38:01.795Z,45.44
2018-07-30T11:40:29.791Z,45.68
2018-07-30T11:42:57.513Z,45.54
2018-07-30T11:45:25.202Z,44.95
2018-07-30T11:47:52.836Z,45.68
2018-07-30T11:50:20.723Z,45.59
2018-07-30T11:52:48.380Z,45.80
2018-07-30T11:55:16.334Z,45.69
2018-07-30T11:57:44.261Z,45.82
2018-07-30T12:00:12.204Z,45.84
2018-07-30T12:02:40.237Z,45.16
2018-07-30T12:05:07.893Z,45.21
2018-07-30T12:07:35.597Z,45.24
2018-07-30T12:10:03.296Z,45.91
2018-07-30T12:12:31.051Z,45.93
2018-07-30T12:14:58.694Z,46.03
2018-07-30T12:17:26.325Z,45.95
2018-07-30T12:19:54.078Z,45.47
2018-07-30T12:22:22.366Z,45.24
2018-07-30T12:24:50.006Z,45.76
2018-07-30T12:27:18.060Z,44.97
2018-07-30T12:29:45.697Z,45.40
2018-07-30T12:32:13.345Z,45.20
2018-07-30T12:34:41.023Z,44.89
2018-07-30T12:37:08.959Z,44.78
2018-07-30T12:39:36.923Z,44.73
2018-07-30T12:42:04.647Z,44.78
2018-07-30T12:44:32.265Z,44.83
2018-07-30T12:46:59.909Z,45.14
2018-07-30T12:49:27.698Z,45.36
2018-07-30T12:51:55.350Z,44.71
2018-07-30T12:54:22.998Z,44.71
2018-07-30T12:56:51.152Z,44.62
2018-07-30T12:59:19.153Z,45.08
2018-07-30T13:01:46.818Z,44.73
2018-07-30T13:04:14.537Z,44.57
2018-07-30T13:06:42.516Z,44.42
2018-07-30T13:09:10.581Z,44.67
2018-07-30T13:11:38.528Z,44.85
2018-07-30T13:14:06.767Z,44.05
2018-07-30T13:16:35.280Z,44.63
2018-07-30T13:19:03.778Z,44.10
2018-07-30T13:21:31.488Z,44.74
2018-07-30T13:23:59.398Z,44.59
2018-07-30T13:26:27.390Z,44.08
2018-07-30T13:28:55.062Z,44.09
2018-07-30T13:31:22.802Z,44.77
2018-07-30T13:33:50.583Z,44.81
2018-07-30T13:36:18.602Z,44.80
2018-07-30T13:38:46.620Z,44.16
2018-07-30T13:41:14.682Z,44.78
2018-07-30T13:43:42.408Z,44.14
2018-07-30T13:46:10.121Z,44.85
2018-07-30T13:48:37.802Z,44.08
2018-07-30T13:51:05.644Z,44.61
2018-07-30T13:53:33.572Z,43.95
2018-07-30T13:56:01.245Z,44.00
2018-07-30T13:58:29.159Z,43.65
2018-07-30T14:00:57.046Z,43.57
2018-07-30T14:03:25.002Z,44.01
2018-07-30T14:05:52.760Z,43.48
2018-07-30T14:08:20.480Z,43.24
2018-07-30T14:10:48.409Z,43.43
2018-07-30T14:13:16.482Z,43.21
2018-07-30T14:15:44.158Z,43.69
2018-07-30T14:18:12.609Z,43.20
2018-07-30T14:20:40.341Z,43.29
2018-07-30T14:23:08.226Z,43.79
2018-07-30T14:25:35.881Z,43.67
2018-07-30T14:28:03.625Z,43.03
2018-07-30T14:30:31.521Z,42.76
2018-07-30T14:32:59.475Z,43.22
2018-07-30T14:35:27.239Z,42.43
2018-07-30T14:37:54.901Z,40.89
2018-07-30T14:40:22.856Z,39.48
2018-07-30T14:42:50.588Z,37.54
2018-07-30T14:45:18.956Z,36.51
2018-07-30T14:47:46.881Z,37.03
2018-07-30T14:50:14.531Z,37.23
2018-07-30T14:52:42.184Z,38.77
2018-07-30T14:55:09.826Z,40.53
2018-07-30T14:57:37.640Z,41.92
2018-07-30T15:00:06.706Z,41.89
2018-07-30T15:02:34.616Z,38.97
2018-07-30T15:05:02.272Z,36.17
2018-07-30T15:07:29.941Z,37.88
2018-07-30T15:09:58.049Z,39.57
2018-07-30T15:12:25.791Z,41.45
2018-07-30T15:14:53.586Z,42.30
2018-07-30T15:17:21.386Z,42.32
2018-07-30T15:19:49.076Z,42.46
2018-07-30T15:22:16.733Z,43.58
2018-07-30T15:24:44.402Z,43.19
2018-07-30T15:27:12.110Z,42.84
2018-07-30T15:29:39.880Z,43.35
2018-07-30T15:32:07.995Z,42.71
2018-07-30T15:34:36.135Z,42.72
2018-07-30T15:37:03.804Z,42.97
2018-07-30T15:39:32.149Z,43.38
2018-07-30T15:41:59.823Z,43.25
2018-07-30T15:44:27.927Z,43.60
2018-07-30T15:46:55.917Z,43.16
2018-07-30T15:49:23.865Z,43.19
2018-07-30T15:51:52.205Z,43.30
2018-07-30T15:54:19.897Z,43.87
2018-07-30T15:56:47.553Z,44.13
2018-07-30T15:59:15.333Z,43.63
2018-07-30T16:01:43.144Z,44.20
2018-07-30T16:04:10.901Z,43.75
2018-07-30T16:06:38.657Z,44.47
2018-07-30T16:09:08.151Z,44.46
2018-07-30T16:11:36.149Z,44.17
2018-07-30T16:14:03.817Z,43.70
2018-07-30T16:16:31.462Z,43.71
2018-07-30T16:18:59.798Z,44.05
2018-07-30T16:21:28.119Z,43.56
2018-07-30T16:23:56.285Z,44.17
2018-07-30T16:26:23.932Z,43.93
2018-07-30T16:28:51.716Z,44.43
2018-07-30T16:31:19.648Z,43.99
2018-07-30T16:33:47.584Z,44.73
2018-07-30T16:36:16.268Z,44.67
2018-07-30T16:38:44.577Z,44.39
2018-07-30T16:41:12.264Z,44.96
2018-07-30T16:43:39.921Z,45.04
2018-07-30T16:46:07.553Z,44.37
2018-07-30T16:48:35.567Z,44.34
2018-07-30T16:51:03.230Z,44.26
2018-07-30T16:53:30.892Z,44.61
2018-07-30T16:55:58.576Z,44.53
2018-07-30T16:58:26.688Z,44.99
2018-07-30T17:00:54.427Z,45.09
2018-07-30T17:03:22.062Z,44.52
2018-07-30T17:05:49.764Z,45.16
2018-07-30T17:08:17.449Z,45.39
2018-07-30T17:10:45.128Z,45.38
2018-07-30T17:13:12.795Z,44.91
2018-07-30T17:15:40.477Z,45.27
2018-07-30T17:18:08.151Z,45.54
2018-07-30T17:20:36.107Z,45.14
2018-07-30T17:23:03.860Z,44.94
2018-07-30T17:25:31.912Z,43.76
2018-07-30T17:28:00.106Z,43.95
2018-07-30T17:30:30.433Z,43.42
2018-07-30T17:33:09.095Z,43.24
2018-07-30T17:35:51.525Z,42.34
2018-07-30T17:38:23.336Z,43.04
2018-07-30T17:40:57.801Z,43.19
2018-07-30T17:43:36.048Z,43.00
2018-07-30T17:46:08.251Z,42.69
2018-07-30T17:48:52.795Z,43.18
2018-07-30T17:51:40.210Z,43.27
2018-07-30T17:54:12.932Z,43.66
2018-07-30T18:00:45.096Z,43.27
2018-07-30T18:03:20.264Z,43.56
2018-07-30T18:06:05.936Z,43.31
2018-07-30T18:08:36.843Z,44.21
2018-07-30T18:11:16.914Z,43.91
2018-07-30T18:13:48.112Z,43.89
2018-07-30T18:16:21.352Z,44.65
2018-07-30T18:18:58.985Z,44.83
2018-07-30T18:21:30.253Z,45.01
2018-07-30T18:24:04.709Z,45.23
2018-07-30T18:26:42.216Z,44.93
2018-07-30T18:29:14.323Z,45.03
2018-07-30T18:31:51.611Z,45.58
2018-07-30T18:34:21.584Z,45.79
2018-07-30T18:36:54.785Z,45.81
2018-07-30T18:39:50.585Z,45.16
2018-07-30T18:42:20.195Z,45.13
2018-07-30T18:44:54.433Z,45.59
2018-07-30T18:47:23.214Z,45.65
2018-07-30T18:49:54.158Z,45.54
2018-07-30T18:52:24.816Z,45.58
2018-07-30T18:54:55.392Z,45.10
2018-07-30T18:57:24.572Z,45.79
2018-07-30T18:59:55.053Z,45.89
2018-07-30T19:02:24.732Z,46.20
2018-07-30T19:04:58.063Z,45.54
2018-07-30T19:07:28.892Z,45.88
2018-07-30T19:10:02.205Z,46.54
2018-07-30T19:12:35.214Z,46.81
2018-07-30T19:15:07.995Z,46.71
2018-07-30T19:17:36.135Z,46.33
2018-07-30T19:20:04.433Z,46.61
2018-07-30T19:22:32.105Z,46.50
2018-07-30T19:25:00.171Z,47.20
2018-07-30T19:27:28.137Z,46.72
2018-07-30T19:29:56.071Z,46.75
2018-07-30T19:32:23.868Z,47.17
2018-07-30T19:34:51.496Z,46.96
2018-07-30T19:37:19.508Z,46.85
2018-07-30T19:39:47.421Z,46.77
2018-07-30T19:42:15.366Z,47.48
2018-07-30T19:44:43.156Z,47.65
2018-07-30T19:47:10.792Z,47.40
2018-07-30T19:49:38.473Z,48.29
2018-07-30T19:52:06.157Z,48.30
2018-07-30T19:54:33.816Z,48.16
2018-07-30T19:57:02.258Z,48.25
2018-07-30T19:59:29.953Z,48.63
2018-07-30T20:01:57.635Z,48.71
2018-07-30T20:04:25.638Z,47.90
2018-07-30T20:06:53.598Z,47.65
2018-07-30T20:09:21.292Z,48.53
2018-07-30T20:11:49.257Z,48.65
2018-07-30T20:14:18.110Z,48.03
2018-07-30T20:16:45.757Z,48.95
2018-07-30T20:19:13.637Z,48.39
2018-07-30T20:21:41.841Z,48.84
2018-07-30T20:24:09.510Z,48.57
2018-07-30T20:26:38.090Z,49.03
2018-07-30T20:29:06.229Z,49.42
2018-07-30T20:31:34.131Z,49.21
2018-07-30T20:34:02.068Z,49.04
2018-07-30T20:36:30.111Z,49.33
2018-07-30T20:38:58.030Z,49.73
2018-07-30T20:41:25.864Z,49.10
2018-07-30T20:43:53.962Z,49.81
2018-07-30T20:46:21.944Z,50.07
2018-07-30T20:48:49.661Z,49.71
2018-07-30T20:51:18.029Z,50.05
2018-07-30T20:53:45.688Z,49.81
2018-07-30T20:56:13.354Z,48.99
2018-07-30T20:58:41.405Z,49.19
2018-07-30T21:01:09.155Z,50.24
2018-07-30T21:03:37.597Z,49.74
2018-07-30T21:06:05.490Z,50.68
2018-07-30T21:08:33.437Z,50.46
2018-07-30T21:11:01.112Z,50.47
2018-07-30T21:13:29.011Z,49.70
2018-07-30T21:15:56.645Z,49.65
2018-07-30T21:18:24.331Z,50.08
2018-07-30T21:20:52.663Z,49.70
2018-07-30T21:23:20.294Z,50.20
2018-07-30T21:25:47.965Z,50.21
2018-07-30T21:28:15.869Z,50.48
2018-07-30T21:30:43.825Z,49.79
2018-07-30T21:33:11.711Z,50.12
2018-07-30T21:35:39.765Z,50.46
2018-07-30T21:38:07.940Z,50.06
2018-07-30T21:40:35.620Z,50.53
2018-07-30T21:43:03.977Z,50.43
2018-07-30T21:45:31.969Z,50.58
2018-07-30T21:47:59.977Z,51.07
2018-07-30T21:50:27.894Z,50.22
2018-07-30T21:52:55.809Z,51.04
2018-07-30T21:55:23.534Z,51.21
2018-07-30T21:57:51.195Z,51.29
2018-07-30T22:00:22.365Z,51.81
2018-07-30T22:02:50.709Z,50.67
2018-07-30T22:05:18.717Z,51.55
2018-07-30T22:07:46.793Z,52.08
2018-07-30T22:10:14.710Z,51.52
2018-07-30T22:12:42.856Z,51.62
2018-07-30T22:15:10.809Z,51.88
2018-07-30T22:17:38.775Z,51.83
2018-07-30T22:20:06.707Z,51.32
2018-07-30T22:22:35.148Z,52.24
2018-07-30T22:25:02.843Z,51.83
2018-07-30T22:27:30.610Z,51.56
2018-07-30T22:29:59.515Z,52.41
2018-07-30T22:32:27.440Z,51.53
2018-07-30T22:34:55.155Z,52.41
2018-07-30T22:37:22.797Z,52.21
2018-07-30T22:39:50.702Z,52.28
2018-07-30T22:42:18.468Z,51.48
2018-07-30T22:44:46.121Z,51.18
2018-07-30T22:47:13.705Z,51.84
2018-07-30T22:49:41.387Z,51.43
2018-07-30T22:52:09.898Z,51.70
2018-07-30T22:54:37.666Z,51.37
2018-07-30T22:57:05.544Z,52.08
2018-07-30T22:59:33.221Z,52.16
2018-07-30T23:02:00.884Z,52.11
2018-07-30T23:04:28.537Z,52.33
2018-07-30T23:06:56.222Z,52.13
2018-07-30T23:09:24.076Z,52.71
2018-07-30T23:11:51.779Z,52.62
2018-07-30T23:14:19.438Z,52.95
2018-07-30T23:16:47.570Z,53.05
2018-07-30T23:19:15.238Z,52.82
2018-07-30T23:21:43.140Z,53.46
2018-07-30T23:24:11.020Z,53.63
2018-07-30T23:26:38.692Z,52.55
2018-07-30T23:29:06.703Z,52.60
2018-07-30T23:31:34.663Z,52.58
2018-07-30T23:34:02.307Z,52.36
2018-07-30T23:36:29.960Z,52.62
2018-07-30T23:38:57.869Z,53.84
2018-07-30T23:41:25.720Z,53.32
2018-07-30T23:43:53.362Z,52.98
2018-07-30T23:46:21.381Z,53.02
2018-07-30T23:48:49.017Z,53.58
2018-07-30T23:51:16.706Z,53.76
2018-07-30T23:53:44.720Z,54.05
2018-07-30T23:56:12.385Z,53.60
2018-07-30T23:58:40.071Z,53.06
